createdAt,value
2023-05-19T00:01:22.175Z,4.33
2023-05-19T00:04:26.674Z,2.87
2023-05-19T00:07:33.983Z,3.07
2023-05-19T00:10:40.640Z,2.97
2023-05-19T00:13:48.484Z,3.57
2023-05-19T00:16:53.005Z,4.17
2023-05-19T00:19:56.847Z,3.37
2023-05-19T00:23:00.866Z,3.60
2023-05-19T00:26:06.174Z,2.73
2023-05-19T00:29:10.066Z,4.73
2023-05-19T00:32:13.986Z,3.80
2023-05-19T00:35:18.222Z,2.20
2023-05-19T00:38:22.020Z,5.57
2023-05-19T00:41:27.680Z,4.07
2023-05-19T00:44:31.532Z,6.63
2023-05-19T00:47:36.033Z,2.20
2023-05-19T00:50:40.189Z,8.47
2023-05-19T00:53:48.723Z,8.40
2023-05-19T00:56:54.832Z,3.13
2023-05-19T00:59:58.930Z,3.27
2023-05-19T01:03:03.294Z,2.13
2023-05-19T01:06:07.791Z,2.93
2023-05-19T01:09:12.404Z,4.67
2023-05-19T01:12:17.801Z,7.37
2023-05-19T01:15:21.836Z,6.33
2023-05-19T01:18:32.440Z,3.00
2023-05-19T01:22:24.449Z,5.47
2023-05-19T01:26:07.269Z,2.43
2023-05-19T01:29:30.650Z,4.70
2023-05-19T01:32:37.592Z,3.27
2023-05-19T01:35:43.494Z,4.77
2023-05-19T01:38:48.386Z,5.30
2023-05-19T01:41:54.012Z,4.07
2023-05-19T01:44:58.536Z,2.97
2023-05-19T01:48:08.468Z,9.17
2023-05-19T01:51:15.816Z,8.90
2023-05-19T01:54:20.118Z,3.93
2023-05-19T01:57:34.084Z,3.30
2023-05-19T02:00:53.015Z,7.73
2023-05-19T02:04:30.660Z,3.40
2023-05-19T02:07:44.032Z,6.20
2023-05-19T02:10:53.442Z,4.80
2023-05-19T02:14:01.192Z,4.10
2023-05-19T02:17:07.145Z,4.70
2023-05-19T02:20:13.614Z,4.30
2023-05-19T02:23:17.648Z,5.83
2023-05-19T02:26:21.788Z,6.77
2023-05-19T02:29:26.160Z,3.70
2023-05-19T02:32:30.340Z,2.73
2023-05-19T02:35:35.854Z,3.23
2023-05-19T02:38:39.928Z,3.30
2023-05-19T02:41:44.098Z,3.60
2023-05-19T02:44:48.193Z,4.57
2023-05-19T02:47:52.299Z,4.37
2023-05-19T02:50:57.749Z,6.33
2023-05-19T02:54:01.843Z,2.97
2023-05-19T02:57:06.174Z,4.80
2023-05-19T03:00:11.533Z,4.33
2023-05-19T03:03:15.805Z,4.57
2023-05-19T03:06:23.575Z,3.73
2023-05-19T03:09:27.802Z,4.07
2023-05-19T03:12:31.927Z,8.60
2023-05-19T03:15:37.002Z,8.23
2023-05-19T03:18:41.022Z,5.27
2023-05-19T03:21:46.693Z,6.03
2023-05-19T03:24:51.929Z,4.00
2023-05-19T03:27:56.074Z,6.40
2023-05-19T03:31:00.108Z,4.70
2023-05-19T03:34:09.561Z,4.03
2023-05-19T03:37:15.031Z,5.50
2023-05-19T03:40:19.265Z,3.33
2023-05-19T03:43:23.957Z,5.63
2023-05-19T03:46:35.287Z,4.30
2023-05-19T03:49:57.216Z,3.97
2023-05-19T03:53:31.855Z,3.73
2023-05-19T03:56:36.236Z,4.57
2023-05-19T03:59:41.640Z,5.43
2023-05-19T04:02:45.752Z,6.27
2023-05-19T04:05:50.297Z,3.83
2023-05-19T04:08:56.054Z,5.80
2023-05-19T04:11:59.879Z,4.17
2023-05-19T04:15:04.001Z,5.63
2023-05-19T04:18:08.132Z,5.47
2023-05-19T04:21:12.219Z,9.03
2023-05-19T04:24:17.528Z,7.40
2023-05-19T04:27:22.311Z,4.63
2023-05-19T04:30:27.130Z,3.70
2023-05-19T04:33:31.057Z,5.30
2023-05-19T04:36:35.542Z,6.33
2023-05-19T04:39:43.331Z,6.77
2023-05-19T04:42:50.179Z,4.50
2023-05-19T04:45:54.942Z,4.83
2023-05-19T04:49:01.520Z,4.27
2023-05-19T04:52:07.115Z,7.57
2023-05-19T04:55:13.499Z,5.73
2023-05-19T04:58:18.603Z,6.53
2023-05-19T05:01:26.434Z,4.33
2023-05-19T05:04:32.152Z,7.13
2023-05-19T05:07:36.117Z,7.27
2023-05-19T05:10:41.770Z,6.63
2023-05-19T05:13:46.546Z,9.07
2023-05-19T05:16:52.404Z,7.03
2023-05-19T05:20:00.630Z,4.50
2023-05-19T05:23:05.337Z,6.63
2023-05-19T05:26:20.168Z,4.50
2023-05-19T05:29:26.688Z,9.23
2023-05-19T05:32:31.434Z,5.83
2023-05-19T05:35:36.641Z,8.37
2023-05-19T05:38:42.074Z,6.30
2023-05-19T05:41:47.773Z,11.43
2023-05-19T05:44:51.945Z,7.33
2023-05-19T05:47:56.664Z,6.40
2023-05-19T05:51:01.466Z,6.25
2023-05-19T05:54:09.692Z,5.38
2023-05-19T05:57:19.806Z,7.32
2023-05-19T06:00:24.368Z,8.10
2023-05-19T06:03:30.307Z,5.22
2023-05-19T06:06:39.529Z,13.10
2023-05-19T06:09:43.718Z,7.82
2023-05-19T06:12:49.512Z,11.23
2023-05-19T06:15:54.067Z,5.50
2023-05-19T06:19:03.000Z,8.95
2023-05-19T06:22:07.016Z,10.40
2023-05-19T06:25:11.925Z,11.00
2023-05-19T06:28:17.945Z,8.85
2023-05-19T06:31:22.274Z,10.00
2023-05-19T06:34:30.109Z,9.35
2023-05-19T06:37:34.287Z,10.43
2023-05-19T06:40:38.694Z,7.82
2023-05-19T06:43:44.438Z,6.90
2023-05-19T06:46:51.291Z,10.70
2023-05-19T06:49:57.067Z,10.35
2023-05-19T06:53:04.778Z,10.32
2023-05-19T06:56:09.384Z,7.13
2023-05-19T06:59:17.594Z,7.95
2023-05-19T07:02:22.172Z,8.55
2023-05-19T07:05:26.319Z,12.70
2023-05-19T07:08:34.937Z,10.88
2023-05-19T07:11:40.361Z,9.32
2023-05-19T07:14:47.114Z,16.98
2023-05-19T07:17:53.211Z,9.30
2023-05-19T07:20:58.005Z,9.10
2023-05-19T07:24:02.735Z,12.85
2023-05-19T07:27:07.411Z,13.05
2023-05-19T07:30:14.157Z,10.38
2023-05-19T07:33:18.169Z,9.68
2023-05-19T07:36:22.272Z,10.30
2023-05-19T07:39:29.920Z,14.63
2023-05-19T07:42:34.007Z,10.45
2023-05-19T07:45:39.670Z,12.05
2023-05-19T07:48:43.787Z,10.30
2023-05-19T07:51:47.994Z,11.15
2023-05-19T07:54:52.092Z,10.32
2023-05-19T07:57:56.593Z,11.18
2023-05-19T08:01:02.555Z,13.02
2023-05-19T08:04:07.316Z,22.75
2023-05-19T08:07:12.587Z,11.60
2023-05-19T08:10:16.663Z,10.55
2023-05-19T08:13:20.732Z,11.45
2023-05-19T08:16:26.424Z,11.75
2023-05-19T08:19:30.563Z,14.15
2023-05-19T08:22:34.641Z,13.20
2023-05-19T08:25:38.740Z,12.50
2023-05-19T08:28:42.895Z,13.43
2023-05-19T08:31:48.556Z,14.10
2023-05-19T08:34:52.692Z,9.93
2023-05-19T08:37:56.825Z,9.45
2023-05-19T08:41:00.873Z,9.95
2023-05-19T08:44:05.354Z,11.77
2023-05-19T08:47:14.134Z,10.43
2023-05-19T08:50:23.293Z,10.77
2023-05-19T08:53:34.355Z,13.75
2023-05-19T08:56:40.077Z,12.45
2023-05-19T08:59:45.469Z,12.80
2023-05-19T09:03:00.425Z,12.48
2023-05-19T09:06:10.455Z,9.38
2023-05-19T09:09:14.596Z,10.90
2023-05-19T09:12:18.650Z,14.82
2023-05-19T09:15:27.674Z,10.27
2023-05-19T09:18:33.584Z,12.63
2023-05-19T09:21:37.863Z,11.05
2023-05-19T09:24:42.139Z,11.00
2023-05-19T09:27:47.027Z,10.27
2023-05-19T09:30:51.168Z,14.88
2023-05-19T09:33:58.109Z,13.10
2023-05-19T09:37:02.475Z,12.38
2023-05-19T09:40:11.139Z,9.60
2023-05-19T09:43:16.010Z,10.15
2023-05-19T09:46:20.138Z,11.30
2023-05-19T09:49:27.617Z,11.10
2023-05-19T09:52:32.009Z,13.13
2023-05-19T09:55:36.654Z,14.50
2023-05-19T09:58:44.014Z,19.25
2023-05-19T10:01:49.968Z,12.60
2023-05-19T10:04:56.981Z,13.75
2023-05-19T10:08:01.708Z,11.88
2023-05-19T10:11:07.109Z,18.60
2023-05-19T10:14:11.267Z,11.40
2023-05-19T10:17:16.111Z,14.60
2023-05-19T10:20:21.954Z,11.77
2023-05-19T10:23:26.255Z,21.30
2023-05-19T10:26:31.550Z,13.25
2023-05-19T10:29:41.492Z,13.73
2023-05-19T10:32:48.941Z,13.77
2023-05-19T10:36:14.612Z,14.35
2023-05-19T10:39:20.909Z,14.98
2023-05-19T10:42:35.441Z,14.70
2023-05-19T10:45:47.796Z,11.07
2023-05-19T10:48:51.831Z,15.60
2023-05-19T10:51:58.669Z,14.70
2023-05-19T10:55:03.097Z,15.93
2023-05-19T10:58:07.167Z,13.15
2023-05-19T11:01:14.594Z,14.38
2023-05-19T11:04:19.540Z,19.30
2023-05-19T11:07:25.965Z,16.15
2023-05-19T11:10:29.999Z,15.77
2023-05-19T11:13:34.079Z,17.90
2023-05-19T11:16:38.160Z,14.20
2023-05-19T11:19:53.793Z,13.60
2023-05-19T11:23:07.601Z,12.48
2023-05-19T11:26:12.083Z,13.70
2023-05-19T11:29:16.822Z,9.73
2023-05-19T11:32:22.740Z,11.85
2023-05-19T11:35:27.957Z,11.27
2023-05-19T11:38:34.055Z,11.85
2023-05-19T11:41:41.189Z,10.55
2023-05-19T11:44:46.820Z,11.45
2023-05-19T11:48:01.283Z,12.45
2023-05-19T11:51:08.499Z,9.95
2023-05-19T11:54:14.499Z,10.00
2023-05-19T11:57:18.980Z,14.65
2023-05-19T12:00:25.374Z,9.10
2023-05-19T12:03:30.002Z,10.82
2023-05-19T12:06:34.993Z,11.98
2023-05-19T12:09:40.714Z,12.15
2023-05-19T12:12:46.512Z,10.85
2023-05-19T12:15:53.600Z,12.40
2023-05-19T12:18:57.819Z,11.35
2023-05-19T12:22:04.007Z,12.30
2023-05-19T12:25:11.668Z,11.93
2023-05-19T12:28:17.793Z,11.00
2023-05-19T12:31:23.941Z,14.00
2023-05-19T12:34:28.068Z,13.68
2023-05-19T12:37:33.567Z,14.55
2023-05-19T12:40:40.018Z,12.65
2023-05-19T12:43:44.569Z,13.20
2023-05-19T12:46:48.528Z,8.88
2023-05-19T12:50:02.348Z,10.85
2023-05-19T12:53:10.416Z,13.50
2023-05-19T12:56:17.838Z,12.88
2023-05-19T12:59:37.376Z,12.05
2023-05-19T13:02:58.142Z,11.88
2023-05-19T13:06:02.379Z,10.73
2023-05-19T13:09:07.500Z,10.45
2023-05-19T13:12:13.143Z,10.32
2023-05-19T13:15:17.471Z,12.88
2023-05-19T13:18:21.703Z,13.90
2023-05-19T13:21:25.757Z,12.45
2023-05-19T13:24:29.992Z,15.10
2023-05-19T13:27:35.692Z,11.68
2023-05-19T13:30:41.093Z,12.35
2023-05-19T13:33:45.209Z,10.32
2023-05-19T13:36:49.364Z,9.23
2023-05-19T13:39:53.410Z,9.52
2023-05-19T13:42:59.317Z,12.55
2023-05-19T13:46:03.428Z,13.10
2023-05-19T13:49:07.681Z,9.90
2023-05-19T13:52:12.017Z,11.45
2023-05-19T13:55:16.619Z,13.85
2023-05-19T13:58:22.819Z,13.70
2023-05-19T14:01:26.996Z,14.23
2023-05-19T14:04:31.074Z,14.27
2023-05-19T14:07:36.012Z,12.20
2023-05-19T14:10:40.130Z,11.73
2023-05-19T14:13:45.690Z,9.90
2023-05-19T14:16:49.850Z,10.57
2023-05-19T14:19:54.093Z,11.25
2023-05-19T14:22:58.169Z,11.98
2023-05-19T14:26:02.275Z,12.18
2023-05-19T14:29:07.810Z,9.13
2023-05-19T14:32:11.976Z,12.48
2023-05-19T14:35:16.102Z,11.25
2023-05-19T14:38:19.825Z,11.40
2023-05-19T14:41:24.073Z,14.55
2023-05-19T14:44:34.208Z,10.13
2023-05-19T14:47:38.360Z,12.27
2023-05-19T14:50:42.514Z,11.25
2023-05-19T14:53:46.646Z,9.88
2023-05-19T14:56:50.814Z,10.63
2023-05-19T14:59:56.334Z,19.75
2023-05-19T15:03:00.436Z,11.18
2023-05-19T15:06:04.473Z,12.75
2023-05-19T15:09:08.519Z,11.32
2023-05-19T15:12:12.599Z,9.90
2023-05-19T15:15:18.287Z,18.48
2023-05-19T15:18:22.317Z,17.63
2023-05-19T15:21:26.469Z,10.60
2023-05-19T15:24:30.616Z,19.85
2023-05-19T15:27:36.662Z,11.73
2023-05-19T15:30:43.329Z,15.60
2023-05-19T15:33:47.456Z,13.45
2023-05-19T15:36:51.517Z,14.57
2023-05-19T15:39:56.112Z,15.65
2023-05-19T15:43:00.246Z,17.00
2023-05-19T15:46:06.360Z,14.85
2023-05-19T15:49:12.850Z,18.83
2023-05-19T15:52:17.445Z,13.65
2023-05-19T15:55:22.218Z,14.32
2023-05-19T15:58:26.373Z,19.25
2023-05-19T16:01:32.171Z,12.55
2023-05-19T16:04:36.282Z,15.88
2023-05-19T16:07:42.352Z,19.40
2023-05-19T16:10:46.506Z,11.50
2023-05-19T16:13:50.508Z,15.75
2023-05-19T16:16:56.035Z,13.90
2023-05-19T16:20:00.177Z,14.20
2023-05-19T16:23:04.458Z,20.05
2023-05-19T16:26:08.439Z,15.20
2023-05-19T16:29:12.934Z,18.38
2023-05-19T16:32:18.635Z,13.25
2023-05-19T16:35:22.907Z,17.77
2023-05-19T16:38:27.098Z,14.52
2023-05-19T16:41:31.133Z,12.45
2023-05-19T16:44:35.169Z,16.63
2023-05-19T16:47:40.737Z,14.13
2023-05-19T16:50:44.756Z,13.20
2023-05-19T16:53:48.831Z,11.35
2023-05-19T16:56:53.782Z,11.48
2023-05-19T16:59:57.924Z,15.77
2023-05-19T17:03:03.598Z,15.73
2023-05-19T17:06:07.865Z,12.00
2023-05-19T17:09:11.896Z,16.52
2023-05-19T17:12:16.083Z,22.88
2023-05-19T17:15:20.179Z,17.35
2023-05-19T17:18:25.695Z,13.10
2023-05-19T17:21:29.792Z,13.77
2023-05-19T17:24:34.707Z,13.90
2023-05-19T17:27:38.797Z,15.15
2023-05-19T17:30:43.018Z,16.30
2023-05-19T17:33:48.597Z,13.45
2023-05-19T17:36:52.617Z,16.58
2023-05-19T17:39:56.630Z,17.40
2023-05-19T17:43:00.729Z,26.30
2023-05-19T17:46:05.007Z,16.35
2023-05-19T17:49:10.905Z,23.40
2023-05-19T17:52:16.229Z,23.48
2023-05-19T17:55:21.397Z,19.13
2023-05-19T17:58:26.087Z,17.50
2023-05-19T18:01:30.592Z,16.30
2023-05-19T18:04:36.753Z,17.92
2023-05-19T18:07:41.614Z,19.77
2023-05-19T18:10:46.330Z,23.05
2023-05-19T18:13:50.388Z,24.35
2023-05-19T18:16:54.438Z,26.75
2023-05-19T18:19:59.993Z,28.10
2023-05-19T18:23:04.092Z,27.20
2023-05-19T18:26:08.143Z,27.25
2023-05-19T18:29:13.993Z,33.00
2023-05-19T18:32:18.237Z,39.05
2023-05-19T18:35:23.800Z,27.63
2023-05-19T18:38:28.029Z,21.95
2023-05-19T18:41:32.447Z,20.30
2023-05-19T18:44:36.575Z,21.45
2023-05-19T18:47:40.586Z,28.98
2023-05-19T18:50:46.163Z,36.70
2023-05-19T18:53:51.045Z,22.48
2023-05-19T18:56:56.457Z,20.88
2023-05-19T19:00:00.594Z,24.83
2023-05-19T19:03:04.808Z,18.55
2023-05-19T19:06:10.347Z,20.35
2023-05-19T19:09:14.477Z,24.40
2023-05-19T19:12:20.292Z,22.25
2023-05-19T19:15:24.655Z,20.67
2023-05-19T19:18:28.818Z,19.73
2023-05-19T19:21:34.238Z,23.85
2023-05-19T19:24:38.340Z,21.25
2023-05-19T19:27:42.276Z,16.38
2023-05-19T19:30:47.144Z,25.33
2023-05-19T19:33:51.183Z,23.60
2023-05-19T19:36:56.600Z,24.67
2023-05-19T19:40:00.538Z,18.25
2023-05-19T19:43:04.539Z,21.02
2023-05-19T19:46:09.490Z,23.92
2023-05-19T19:49:13.556Z,16.92
2023-05-19T19:52:19.015Z,15.45
2023-05-19T19:55:23.121Z,15.60
2023-05-19T19:58:27.813Z,16.95
2023-05-19T20:01:31.790Z,22.75
2023-05-19T20:04:36.035Z,23.50
2023-05-19T20:07:41.558Z,21.77
2023-05-19T20:10:45.530Z,16.30
2023-05-19T20:13:49.546Z,16.60
2023-05-19T20:16:53.488Z,17.35
2023-05-19T20:19:58.599Z,18.73
2023-05-19T20:23:04.049Z,13.68
2023-05-19T20:26:11.883Z,18.05
2023-05-19T20:29:17.145Z,17.35
2023-05-19T20:32:21.110Z,15.40
2023-05-19T20:35:25.424Z,13.68
2023-05-19T20:38:30.919Z,13.90
2023-05-19T20:41:34.891Z,11.82
2023-05-19T20:44:38.828Z,12.40
2023-05-19T20:47:42.950Z,12.00
2023-05-19T20:50:47.284Z,13.25
2023-05-19T20:53:52.983Z,14.13
2023-05-19T20:56:56.990Z,16.83
2023-05-19T21:00:01.140Z,17.70
2023-05-19T21:03:05.243Z,13.60
2023-05-19T21:06:09.298Z,22.73
2023-05-19T21:09:15.052Z,29.30
2023-05-19T21:12:20.589Z,31.95
2023-05-19T21:15:27.203Z,29.58
2023-05-19T21:18:31.291Z,27.95
2023-05-19T21:21:35.325Z,26.00
2023-05-19T21:24:40.710Z,30.20
2023-05-19T21:27:46.515Z,24.10
2023-05-19T21:30:50.483Z,25.75
2023-05-19T21:33:54.565Z,23.63
2023-05-19T21:36:58.543Z,22.17
2023-05-19T21:40:04.024Z,22.27
2023-05-19T21:43:07.953Z,22.77
2023-05-19T21:46:12.362Z,23.40
2023-05-19T21:49:16.701Z,21.27
2023-05-19T21:52:20.908Z,20.53
2023-05-19T21:55:26.341Z,20.90
2023-05-19T21:58:30.273Z,18.07
2023-05-19T22:01:34.316Z,19.13
2023-05-19T22:04:38.962Z,15.63
2023-05-19T22:07:43.217Z,17.67
2023-05-19T22:10:51.418Z,16.13
2023-05-19T22:13:55.908Z,14.43
2023-05-19T22:16:59.946Z,17.30
2023-05-19T22:20:04.045Z,15.97
2023-05-19T22:23:07.946Z,18.10
2023-05-19T22:26:13.394Z,15.97
2023-05-19T22:29:18.902Z,13.73
2023-05-19T22:32:22.853Z,20.23
2023-05-19T22:35:27.078Z,13.13
2023-05-19T22:38:31.109Z,16.93
2023-05-19T22:41:37.071Z,15.30
2023-05-19T22:44:41.087Z,15.57
2023-05-19T22:47:45.092Z,12.13
2023-05-19T22:50:49.090Z,12.97
2023-05-19T22:53:53.073Z,12.37
2023-05-19T22:56:58.417Z,15.27
2023-05-19T23:00:02.429Z,14.30
2023-05-19T23:03:06.617Z,13.50
2023-05-19T23:06:10.657Z,12.23
2023-05-19T23:09:16.125Z,11.73
2023-05-19T23:12:21.426Z,12.37
2023-05-19T23:15:25.468Z,12.70
2023-05-19T23:18:29.517Z,14.70
2023-05-19T23:21:34.045Z,13.73
2023-05-19T23:24:37.828Z,14.03
2023-05-19T23:27:43.243Z,11.90
2023-05-19T23:30:47.145Z,10.23
2023-05-19T23:33:51.141Z,11.33
2023-05-19T23:36:55.013Z,10.30
2023-05-19T23:39:59.095Z,11.97
2023-05-19T23:43:04.574Z,10.70
2023-05-19T23:46:08.619Z,12.03
2023-05-19T23:49:12.722Z,11.57
2023-05-19T23:52:17.044Z,14.07
2023-05-19T23:55:21.719Z,12.43
2023-05-19T23:58:27.129Z,13.13
